createdAt,value
2019-03-01T00:01:47.857Z,38.00
2019-03-01T00:04:13.819Z,38.20
2019-03-01T00:06:39.756Z,38.20
2019-03-01T00:09:06.113Z,38.10
2019-03-01T00:11:32.085Z,38.10
2019-03-01T00:13:58.015Z,38.00
2019-03-01T00:16:23.943Z,38.00
2019-03-01T00:18:49.879Z,37.90
2019-03-01T00:21:15.842Z,38.00
2019-03-01T00:23:41.805Z,38.00
2019-03-01T00:26:07.743Z,38.00
2019-03-01T00:28:33.696Z,38.00
2019-03-01T00:30:59.628Z,38.00
2019-03-01T00:33:25.565Z,37.90
2019-03-01T00:35:51.532Z,37.90
2019-03-01T00:38:17.490Z,38.00
2019-03-01T00:40:43.423Z,38.60
2019-03-01T00:43:09.404Z,37.90
2019-03-01T00:45:35.340Z,37.90
2019-03-01T00:48:01.326Z,38.00
2019-03-01T00:50:27.385Z,38.00
2019-03-01T00:52:53.388Z,38.70
2019-03-01T00:55:19.432Z,38.10
2019-03-01T00:57:45.391Z,38.10
2019-03-01T01:00:11.356Z,38.10
2019-03-01T01:02:37.863Z,38.10
2019-03-01T01:05:03.836Z,38.10
2019-03-01T01:07:29.771Z,38.10
2019-03-01T01:09:55.750Z,38.10
2019-03-01T01:12:22.079Z,38.10
2019-03-01T01:14:48.152Z,38.10
2019-03-01T01:17:14.181Z,38.10
2019-03-01T01:19:40.156Z,38.00
2019-03-01T01:22:06.106Z,38.00
2019-03-01T01:24:32.063Z,38.10
2019-03-01T01:26:58.040Z,38.00
2019-03-01T01:29:24.009Z,38.00
2019-03-01T01:31:50.008Z,38.10
2019-03-01T01:34:16.064Z,38.10
2019-03-01T01:36:42.156Z,38.10
2019-03-01T01:39:08.108Z,38.00
2019-03-01T01:41:34.056Z,38.10
2019-03-01T01:44:00.022Z,38.10
2019-03-01T01:46:26.064Z,38.00
2019-03-01T01:48:52.020Z,38.00
2019-03-01T01:51:17.984Z,38.00
2019-03-01T01:53:44.500Z,38.00
2019-03-01T01:56:10.964Z,38.00
2019-03-01T01:58:37.420Z,38.00
2019-03-01T02:01:03.809Z,38.00
2019-03-01T02:03:30.354Z,38.00
2019-03-01T02:05:56.429Z,38.00
2019-03-01T02:08:22.988Z,38.10
2019-03-01T02:10:49.529Z,38.00
2019-03-01T02:13:16.048Z,38.00
2019-03-01T02:15:42.615Z,38.00
2019-03-01T02:18:09.085Z,38.00
2019-03-01T02:20:35.537Z,38.00
2019-03-01T02:23:01.611Z,38.00
2019-03-01T02:25:27.568Z,38.00
2019-03-01T02:27:53.501Z,38.00
2019-03-01T02:30:19.462Z,38.00
2019-03-01T02:32:45.510Z,38.00
2019-03-01T02:35:11.757Z,38.10
2019-03-01T02:37:37.819Z,38.00
2019-03-01T02:40:03.763Z,38.00
2019-03-01T02:42:30.126Z,37.90
2019-03-01T02:44:56.216Z,37.90
2019-03-01T02:47:22.197Z,37.90
2019-03-01T02:49:48.152Z,37.80
2019-03-01T02:52:14.462Z,37.90
2019-03-01T02:54:40.526Z,38.00
2019-03-01T02:57:06.489Z,38.00
2019-03-01T02:59:32.562Z,38.10
2019-03-01T03:01:58.633Z,38.70
2019-03-01T03:04:24.691Z,38.00
2019-03-01T03:06:52.640Z,38.00
2019-03-01T03:09:18.925Z,38.00
2019-03-01T03:11:45.269Z,38.00
2019-03-01T03:14:11.454Z,37.90
2019-03-01T03:16:37.486Z,38.00
2019-03-01T03:19:03.535Z,38.00
2019-03-01T03:21:29.599Z,38.00
2019-03-01T03:23:55.541Z,38.20
2019-03-01T03:26:21.511Z,38.00
2019-03-01T03:28:47.574Z,38.00
2019-03-01T03:31:13.511Z,38.00
2019-03-01T03:33:39.550Z,37.90
2019-03-01T03:36:05.761Z,37.90
2019-03-01T03:38:31.860Z,37.90
2019-03-01T03:40:57.865Z,37.90
2019-03-01T03:43:23.838Z,37.90
2019-03-01T03:45:49.774Z,37.90
2019-03-01T03:48:15.736Z,38.00
2019-03-01T03:50:41.685Z,38.60
2019-03-01T03:53:07.657Z,37.90
2019-03-01T03:55:33.579Z,37.90
2019-03-01T03:57:59.561Z,37.90
2019-03-01T04:00:25.597Z,37.90
2019-03-01T04:02:51.593Z,37.90
2019-03-01T04:05:17.655Z,37.90
2019-03-01T04:07:43.694Z,37.80
2019-03-01T04:10:09.764Z,37.80
2019-03-01T04:12:36.661Z,37.80
2019-03-01T04:15:02.621Z,37.80
2019-03-01T04:17:28.588Z,37.90
2019-03-01T04:19:54.626Z,37.90
2019-03-01T04:22:20.601Z,37.90
2019-03-01T04:24:46.580Z,37.90
2019-03-01T04:27:12.547Z,37.90
2019-03-01T04:29:38.819Z,37.90
2019-03-01T04:32:04.834Z,38.00
2019-03-01T04:34:30.832Z,37.90
2019-03-01T04:36:56.764Z,37.90
2019-03-01T04:39:22.694Z,37.90
2019-03-01T04:41:48.652Z,38.00
2019-03-01T04:44:14.592Z,37.90
2019-03-01T04:46:40.533Z,37.80
2019-03-01T04:49:06.464Z,37.80
2019-03-01T04:51:39.913Z,37.90
2019-03-01T04:54:00.278Z,37.90
2019-03-01T04:56:26.228Z,37.90
2019-03-01T04:58:52.485Z,37.80
2019-03-01T05:01:18.584Z,37.90
2019-03-01T05:03:44.527Z,37.90
2019-03-01T05:06:10.607Z,37.80
2019-03-01T05:08:36.661Z,37.80
2019-03-01T05:11:02.625Z,37.90
2019-03-01T05:13:28.560Z,37.80
2019-03-01T05:15:54.599Z,37.70
2019-03-01T05:18:20.549Z,37.70
2019-03-01T05:20:46.509Z,37.70
2019-03-01T05:23:12.449Z,37.70
2019-03-01T05:25:38.491Z,37.70
2019-03-01T05:28:04.568Z,37.60
2019-03-01T05:30:30.608Z,37.60
2019-03-01T05:32:56.572Z,37.60
2019-03-01T05:35:22.542Z,37.60
2019-03-01T05:37:48.582Z,37.60
2019-03-01T05:40:14.561Z,37.70
2019-03-01T05:42:53.758Z,37.80
2019-03-01T05:45:19.726Z,37.90
2019-03-01T05:47:45.661Z,38.00
2019-03-01T05:50:11.644Z,38.00
2019-03-01T05:52:37.601Z,38.00
2019-03-01T05:55:03.573Z,38.00
2019-03-01T05:57:29.534Z,38.10
2019-03-01T05:59:55.516Z,38.10
2019-03-01T06:02:24.558Z,38.30
2019-03-01T06:04:50.658Z,38.30
2019-03-01T06:07:16.630Z,38.30
2019-03-01T06:09:42.674Z,38.30
2019-03-01T06:12:08.648Z,38.30
2019-03-01T06:14:34.589Z,38.30
2019-03-01T06:17:00.558Z,38.30
2019-03-01T06:19:26.616Z,38.40
2019-03-01T06:21:52.586Z,38.40
2019-03-01T06:24:18.649Z,38.40
2019-03-01T06:26:44.604Z,38.50
2019-03-01T06:29:10.566Z,38.50
2019-03-01T06:31:36.529Z,38.40
2019-03-01T06:34:02.488Z,38.40
2019-03-01T06:36:28.616Z,38.40
2019-03-01T06:39:13.508Z,38.60
2019-03-01T06:41:39.479Z,39.10
2019-03-01T06:44:05.427Z,38.60
2019-03-01T06:46:31.411Z,38.50
2019-03-01T06:48:59.353Z,38.50
2019-03-01T06:51:29.115Z,38.40
2019-03-01T06:53:55.074Z,38.50
2019-03-01T06:56:21.041Z,38.50
2019-03-01T06:58:47.009Z,38.50
2019-03-01T07:01:14.255Z,38.50
2019-03-01T07:03:40.329Z,38.60
2019-03-01T07:06:06.277Z,38.60
2019-03-01T07:08:32.223Z,38.50
2019-03-01T07:10:58.192Z,38.50
2019-03-01T07:13:24.157Z,38.50
2019-03-01T07:15:50.109Z,38.40
2019-03-01T07:18:16.090Z,38.40
2019-03-01T07:20:42.039Z,38.30
2019-03-01T07:23:08.083Z,38.30
2019-03-01T07:25:34.025Z,38.60
2019-03-01T07:27:59.992Z,38.30
2019-03-01T07:30:25.919Z,38.40
2019-03-01T07:32:51.872Z,38.30
2019-03-01T07:35:17.881Z,38.30
2019-03-01T07:37:43.920Z,38.20
2019-03-01T07:40:09.894Z,38.20
2019-03-01T07:42:36.232Z,38.20
2019-03-01T07:45:02.186Z,38.20
2019-03-01T07:47:28.159Z,38.20
2019-03-01T07:49:54.209Z,38.10
2019-03-01T07:52:20.325Z,38.20
2019-03-01T07:54:49.420Z,38.10
2019-03-01T07:57:14.786Z,38.10
2019-03-01T07:59:41.644Z,38.00
2019-03-01T08:02:07.689Z,38.10
2019-03-01T08:04:33.726Z,38.10
2019-03-01T08:06:59.799Z,38.10
2019-03-01T08:09:25.760Z,38.20
2019-03-01T08:11:51.726Z,38.20
2019-03-01T08:14:17.764Z,38.20
2019-03-01T08:16:43.749Z,38.30
2019-03-01T08:19:09.679Z,38.40
2019-03-01T08:21:35.640Z,38.40
2019-03-01T08:24:01.686Z,38.30
2019-03-01T08:26:30.733Z,38.30
2019-03-01T08:28:58.544Z,38.20
2019-03-01T08:31:23.326Z,38.10
2019-03-01T08:33:49.277Z,38.10
2019-03-01T08:36:15.226Z,38.10
2019-03-01T08:38:41.167Z,38.10
2019-03-01T08:41:07.111Z,38.00
2019-03-01T08:43:33.089Z,38.00
2019-03-01T08:45:59.139Z,38.00
2019-03-01T08:48:25.254Z,38.00
2019-03-01T08:50:51.425Z,37.90
2019-03-01T08:53:17.475Z,37.90
2019-03-01T08:55:43.578Z,37.90
2019-03-01T08:58:09.746Z,37.80
2019-03-01T09:00:35.846Z,37.90
2019-03-01T09:03:02.613Z,37.90
2019-03-01T09:05:28.836Z,37.80
2019-03-01T09:07:54.889Z,37.80
2019-03-01T09:10:20.853Z,37.70
2019-03-01T09:12:46.993Z,37.80
2019-03-01T09:15:12.959Z,37.80
2019-03-01T09:17:38.992Z,37.80
2019-03-01T09:20:04.953Z,37.80
2019-03-01T09:22:31.402Z,37.70
2019-03-01T09:24:57.342Z,37.80
2019-03-01T09:27:23.311Z,37.90
2019-03-01T09:29:51.168Z,37.90
2019-03-01T09:32:17.121Z,37.90
2019-03-01T09:34:44.151Z,38.00
2019-03-01T09:37:10.124Z,38.00
2019-03-01T09:39:36.045Z,38.10
2019-03-01T09:42:04.420Z,38.00
2019-03-01T09:44:29.860Z,38.10
2019-03-01T09:46:58.447Z,38.00
2019-03-01T09:49:24.408Z,38.00
2019-03-01T09:51:51.245Z,38.00
2019-03-01T09:54:17.207Z,38.10
2019-03-01T09:56:43.246Z,38.10
2019-03-01T09:59:09.202Z,38.00
2019-03-01T10:01:35.132Z,38.10
2019-03-01T10:04:01.096Z,38.00
2019-03-01T10:06:27.080Z,38.00
2019-03-01T10:08:53.110Z,38.10
2019-03-01T10:11:19.071Z,38.10
2019-03-01T10:13:45.004Z,38.10
2019-03-01T10:16:11.850Z,38.10
2019-03-01T10:18:37.839Z,38.80
2019-03-01T10:21:03.880Z,38.30
2019-03-01T10:23:29.836Z,38.30
2019-03-01T10:25:55.797Z,38.30
2019-03-01T10:28:21.744Z,38.30
2019-03-01T10:30:47.690Z,38.30
2019-03-01T10:33:13.672Z,38.30
2019-03-01T10:35:39.725Z,38.20
2019-03-01T10:38:05.788Z,38.30
2019-03-01T10:40:31.760Z,38.30
2019-03-01T10:42:57.698Z,38.30
2019-03-01T10:45:23.667Z,38.30
2019-03-01T10:47:49.620Z,38.40
2019-03-01T10:50:15.561Z,38.40
2019-03-01T10:52:41.561Z,38.30
2019-03-01T10:55:07.586Z,38.40
2019-03-01T10:57:33.533Z,38.40
2019-03-01T10:59:59.458Z,38.40
2019-03-01T11:02:25.847Z,38.30
2019-03-01T11:04:51.907Z,38.30
2019-03-01T11:07:18.049Z,38.20
2019-03-01T11:09:43.994Z,38.30
2019-03-01T11:12:09.961Z,38.30
2019-03-01T11:14:35.924Z,38.20
2019-03-01T11:17:01.886Z,38.20
2019-03-01T11:19:27.854Z,38.30
2019-03-01T11:21:53.915Z,38.30
2019-03-01T11:24:19.857Z,38.30
2019-03-01T11:26:45.792Z,38.30
2019-03-01T11:29:11.765Z,38.30
2019-03-01T11:31:37.815Z,38.30
2019-03-01T11:34:03.871Z,38.30
2019-03-01T11:36:29.909Z,38.30
2019-03-01T11:38:55.887Z,38.20
2019-03-01T11:41:21.955Z,38.10
2019-03-01T11:43:47.934Z,38.00
2019-03-01T11:46:14.328Z,38.10
2019-03-01T11:48:40.351Z,38.00
2019-03-01T11:51:06.390Z,38.00
2019-03-01T11:53:32.351Z,38.00
2019-03-01T11:55:58.317Z,38.00
2019-03-01T11:58:24.290Z,38.00
2019-03-01T12:00:52.278Z,38.00
2019-03-01T12:03:18.108Z,38.70
2019-03-01T12:05:44.085Z,38.00
2019-03-01T12:08:10.046Z,38.00
2019-03-01T12:10:36.002Z,38.70
2019-03-01T12:13:01.958Z,38.10
2019-03-01T12:15:27.931Z,38.10
2019-03-01T12:17:53.962Z,38.20
2019-03-01T12:20:19.912Z,38.10
2019-03-01T12:22:45.901Z,38.20
2019-03-01T12:25:11.943Z,38.10
2019-03-01T12:27:37.917Z,38.20
2019-03-01T12:30:03.876Z,38.20
2019-03-01T12:32:29.813Z,38.20
2019-03-01T12:34:55.771Z,38.20
2019-03-01T12:37:21.730Z,38.20
2019-03-01T12:39:47.700Z,38.10
2019-03-01T12:42:13.652Z,38.20
2019-03-01T12:44:39.599Z,38.20
2019-03-01T12:47:05.549Z,38.20
2019-03-01T12:49:31.501Z,38.30
2019-03-01T12:51:57.491Z,38.30
2019-03-01T12:54:23.549Z,38.30
2019-03-01T12:56:49.607Z,38.30
2019-03-01T12:59:15.542Z,38.30
2019-03-01T13:01:41.846Z,38.40
2019-03-01T13:04:07.875Z,38.50
2019-03-01T13:06:35.402Z,38.40
2019-03-01T13:09:01.873Z,38.50
2019-03-01T13:11:27.852Z,38.50
2019-03-01T13:13:53.807Z,38.40
2019-03-01T13:16:19.748Z,38.50
2019-03-01T13:18:47.701Z,38.50
2019-03-01T13:21:13.726Z,38.40
2019-03-01T13:23:40.503Z,38.50
2019-03-01T13:26:07.343Z,38.40
2019-03-01T13:28:33.315Z,38.30
2019-03-01T13:30:59.379Z,38.30
2019-03-01T13:33:25.318Z,37.70
2019-03-01T13:35:51.288Z,38.20
2019-03-01T13:38:17.243Z,38.20
2019-03-01T13:40:43.294Z,38.20
2019-03-01T13:43:09.252Z,38.20
2019-03-01T13:45:35.207Z,38.10
2019-03-01T13:48:03.163Z,38.10
2019-03-01T13:50:29.040Z,38.10
2019-03-01T13:52:54.998Z,38.10
2019-03-01T13:55:22.160Z,38.00
2019-03-01T13:57:49.919Z,38.10
2019-03-01T14:00:16.713Z,38.00
2019-03-01T14:02:43.040Z,38.00
2019-03-01T14:05:09.285Z,37.90
2019-03-01T14:07:35.230Z,38.00
2019-03-01T14:10:04.889Z,38.00
2019-03-01T14:12:29.518Z,38.00
2019-03-01T14:14:55.451Z,38.00
2019-03-01T14:17:24.590Z,38.00
2019-03-01T14:19:49.238Z,38.10
2019-03-01T14:22:15.364Z,38.20
2019-03-01T14:24:41.409Z,38.20
2019-03-01T14:27:07.467Z,38.20
2019-03-01T14:29:34.802Z,38.20
2019-03-01T14:32:00.964Z,38.20
2019-03-01T14:34:27.052Z,38.30
2019-03-01T14:36:53.034Z,38.20
2019-03-01T14:39:19.020Z,38.20
2019-03-01T14:41:44.954Z,38.30
2019-03-01T14:44:10.912Z,38.30
2019-03-01T14:46:36.872Z,38.30
2019-03-01T14:49:02.811Z,38.30
2019-03-01T14:51:28.737Z,38.30
2019-03-01T14:53:54.694Z,38.20
2019-03-01T14:56:21.535Z,38.20
2019-03-01T14:58:47.733Z,38.30
2019-03-01T15:01:13.768Z,38.40
2019-03-01T15:03:39.729Z,38.40
2019-03-01T15:06:05.689Z,38.40
2019-03-01T15:08:31.730Z,38.40
2019-03-01T15:10:57.770Z,38.50
2019-03-01T15:13:23.725Z,38.60
2019-03-01T15:15:49.670Z,38.60
2019-03-01T15:18:15.636Z,38.60
2019-03-01T15:20:41.680Z,38.60
2019-03-01T15:23:07.650Z,38.60
2019-03-01T15:25:33.735Z,38.70
2019-03-01T15:27:59.680Z,38.60
2019-03-01T15:30:25.636Z,38.60
2019-03-01T15:32:52.576Z,38.60
2019-03-01T15:35:18.780Z,38.60
2019-03-01T15:37:44.812Z,39.00
2019-03-01T15:40:10.773Z,38.80
2019-03-01T15:42:36.925Z,38.70
2019-03-01T15:45:05.046Z,38.80
2019-03-01T15:47:30.740Z,38.70
2019-03-01T15:49:56.680Z,38.60
2019-03-01T15:52:23.612Z,38.70
2019-03-01T15:54:49.561Z,38.90
2019-03-01T15:57:18.690Z,38.60
2019-03-01T15:59:44.371Z,38.70
2019-03-01T16:02:11.297Z,38.70
2019-03-01T16:04:37.239Z,38.40
2019-03-01T16:07:03.192Z,38.70
2019-03-01T16:09:29.145Z,38.70
2019-03-01T16:11:56.455Z,38.70
2019-03-01T16:14:24.160Z,38.70
2019-03-01T16:16:50.824Z,38.70
2019-03-01T16:19:16.800Z,39.30
2019-03-01T16:21:43.785Z,38.70
2019-03-01T16:24:09.886Z,38.70
2019-03-01T16:26:36.424Z,38.70
2019-03-01T16:29:03.875Z,38.70
2019-03-01T16:31:32.075Z,38.60
2019-03-01T16:34:00.882Z,38.60
2019-03-01T16:36:30.198Z,38.70
2019-03-01T16:38:56.465Z,38.70
2019-03-01T16:41:22.423Z,38.70
2019-03-01T16:43:48.390Z,38.60
2019-03-01T16:46:14.449Z,38.60
2019-03-01T16:48:40.426Z,38.50
2019-03-01T16:51:06.487Z,38.40
2019-03-01T16:53:32.524Z,38.50
2019-03-01T16:55:59.275Z,38.40
2019-03-01T16:58:28.288Z,38.40
2019-03-01T17:00:54.390Z,38.50
2019-03-01T17:03:20.449Z,38.40
2019-03-01T17:05:46.387Z,38.50
2019-03-01T17:08:12.349Z,38.50
2019-03-01T17:10:38.287Z,38.50
2019-03-01T17:13:04.256Z,38.70
2019-03-01T17:15:30.225Z,38.60
2019-03-01T17:17:56.201Z,38.70
2019-03-01T17:20:22.137Z,38.60
2019-03-01T17:22:48.109Z,38.60
2019-03-01T17:25:14.074Z,38.60
2019-03-01T17:27:43.030Z,38.60
2019-03-01T17:30:07.863Z,38.90
2019-03-01T17:32:47.614Z,38.80
2019-03-01T17:35:13.573Z,38.90
2019-03-01T17:37:39.511Z,38.90
2019-03-01T17:40:05.459Z,38.80
2019-03-01T17:42:33.352Z,38.80
2019-03-01T17:44:59.420Z,38.70
2019-03-01T17:47:25.391Z,38.90
2019-03-01T17:49:51.440Z,38.60
2019-03-01T17:52:17.592Z,38.70
2019-03-01T17:54:43.537Z,38.90
2019-03-01T17:57:09.525Z,38.60
2019-03-01T17:59:35.489Z,38.10
2019-03-01T18:02:01.545Z,37.80
2019-03-01T18:04:27.486Z,37.50
2019-03-01T18:06:53.542Z,37.20
2019-03-01T18:09:19.520Z,36.90
2019-03-01T18:11:45.658Z,36.80
2019-03-01T18:14:11.728Z,36.60
2019-03-01T18:16:37.793Z,36.50
2019-03-01T18:19:03.845Z,36.40
2019-03-01T18:21:29.830Z,36.30
2019-03-01T18:23:55.789Z,36.40
2019-03-01T18:26:23.049Z,36.40
2019-03-01T18:28:49.090Z,36.50
2019-03-01T18:31:15.055Z,36.50
2019-03-01T18:33:42.642Z,36.50
2019-03-01T18:36:08.849Z,36.40
2019-03-01T18:38:34.797Z,36.20
2019-03-01T18:41:01.409Z,36.30
2019-03-01T18:43:27.541Z,36.20
2019-03-01T18:45:53.531Z,36.10
2019-03-01T18:48:19.562Z,36.00
2019-03-01T18:50:45.544Z,35.90
2019-03-01T18:53:11.864Z,35.80
2019-03-01T18:55:37.834Z,35.70
2019-03-01T18:58:04.055Z,35.70
2019-03-01T19:00:32.575Z,35.60
2019-03-01T19:03:00.957Z,35.50
2019-03-01T19:05:25.834Z,35.30
2019-03-01T19:07:51.810Z,35.30
2019-03-01T19:10:17.777Z,35.30
2019-03-01T19:12:44.879Z,35.40
2019-03-01T19:15:12.097Z,35.50
2019-03-01T19:17:40.725Z,35.50
2019-03-01T19:20:07.624Z,35.50
2019-03-01T19:22:33.730Z,35.40
2019-03-01T19:24:59.795Z,35.30
2019-03-01T19:27:25.736Z,35.30
2019-03-01T19:29:51.711Z,35.60
2019-03-01T19:32:17.901Z,35.80
2019-03-01T19:34:43.898Z,35.90
2019-03-01T19:37:10.241Z,36.30
2019-03-01T19:39:36.380Z,36.50
2019-03-01T19:42:02.316Z,36.50
2019-03-01T19:44:29.046Z,36.80
2019-03-01T19:46:55.824Z,36.70
2019-03-01T19:49:21.791Z,36.60
2019-03-01T19:51:47.759Z,36.40
2019-03-01T19:54:13.731Z,36.10
2019-03-01T19:56:39.833Z,36.30
2019-03-01T19:59:05.800Z,36.30
2019-03-01T20:01:31.846Z,36.40
2019-03-01T20:03:57.842Z,36.30
2019-03-01T20:06:23.909Z,36.40
2019-03-01T20:08:49.878Z,36.20
2019-03-01T20:11:15.821Z,36.30
2019-03-01T20:13:41.960Z,36.20
2019-03-01T20:16:08.202Z,36.30
2019-03-01T20:18:34.189Z,36.10
2019-03-01T20:21:00.142Z,36.00
2019-03-01T20:23:26.448Z,36.00
2019-03-01T20:25:52.634Z,35.90
2019-03-01T20:28:18.589Z,35.80
2019-03-01T20:30:44.560Z,35.90
2019-03-01T20:33:10.519Z,36.10
2019-03-01T20:35:36.526Z,36.00
2019-03-01T20:38:04.306Z,36.10
2019-03-01T20:40:30.339Z,36.00
2019-03-01T20:43:00.507Z,36.00
2019-03-01T20:45:25.920Z,36.00
2019-03-01T20:47:53.564Z,35.80
2019-03-01T20:50:19.884Z,35.70
2019-03-01T20:52:45.840Z,35.60
2019-03-01T20:55:11.782Z,35.50
2019-03-01T20:57:37.751Z,35.50
2019-03-01T21:00:04.011Z,35.40
2019-03-01T21:02:30.669Z,35.30
2019-03-01T21:04:56.616Z,35.20
2019-03-01T21:07:22.576Z,35.30
2019-03-01T21:09:48.570Z,35.30
2019-03-01T21:12:14.654Z,35.40
2019-03-01T21:14:40.608Z,35.40
2019-03-01T21:17:06.679Z,35.30
2019-03-01T21:19:32.657Z,35.30
2019-03-01T21:22:01.604Z,35.20
2019-03-01T21:24:27.724Z,35.20
2019-03-01T21:26:53.853Z,35.20
2019-03-01T21:29:19.886Z,35.10
2019-03-01T21:31:45.944Z,35.90
2019-03-01T21:34:11.899Z,35.60
2019-03-01T21:36:37.867Z,35.80
2019-03-01T21:39:04.801Z,35.80
2019-03-01T21:41:30.949Z,35.70
2019-03-01T21:43:56.934Z,35.60
2019-03-01T21:46:22.983Z,35.50
2019-03-01T21:48:48.935Z,35.50
2019-03-01T21:51:18.504Z,35.50
2019-03-01T21:53:42.765Z,35.70
2019-03-01T21:56:08.875Z,35.80
2019-03-01T21:58:34.941Z,35.70
2019-03-01T22:01:02.697Z,35.70
2019-03-01T22:03:28.851Z,35.60
2019-03-01T22:05:54.939Z,35.70
2019-03-01T22:08:20.910Z,35.90
2019-03-01T22:10:46.969Z,36.00
2019-03-01T22:13:12.914Z,36.00
2019-03-01T22:15:38.867Z,36.10
2019-03-01T22:18:04.806Z,36.30
2019-03-01T22:20:30.783Z,36.50
2019-03-01T22:22:56.744Z,36.60
2019-03-01T22:25:22.695Z,36.50
2019-03-01T22:27:48.638Z,36.70
2019-03-01T22:30:14.571Z,36.90
2019-03-01T22:32:42.342Z,37.10
2019-03-01T22:35:09.526Z,37.10
2019-03-01T22:37:35.645Z,37.30
2019-03-01T22:40:01.633Z,37.40
2019-03-01T22:42:27.688Z,37.40
2019-03-01T22:44:53.622Z,37.50
2019-03-01T22:47:19.603Z,37.40
2019-03-01T22:49:45.545Z,37.50
2019-03-01T22:52:11.497Z,37.60
2019-03-01T22:54:37.462Z,37.70
2019-03-01T22:57:03.450Z,37.70
2019-03-01T22:59:29.501Z,37.80
2019-03-01T23:01:55.668Z,37.90
2019-03-01T23:04:21.614Z,38.10
2019-03-01T23:06:51.236Z,38.10
2019-03-01T23:09:15.859Z,38.30
2019-03-01T23:11:41.906Z,38.40
2019-03-01T23:14:07.973Z,38.70
2019-03-01T23:16:34.021Z,38.30
2019-03-01T23:18:59.971Z,38.40
2019-03-01T23:21:25.922Z,38.50
2019-03-01T23:23:51.882Z,38.60
2019-03-01T23:26:18.576Z,38.70
2019-03-01T23:28:45.697Z,38.70
2019-03-01T23:31:11.644Z,38.70
2019-03-01T23:33:37.618Z,38.60
2019-03-01T23:36:03.567Z,38.60
2019-03-01T23:38:29.550Z,38.50
2019-03-01T23:40:55.598Z,38.60
2019-03-01T23:43:21.662Z,38.50
2019-03-01T23:45:50.005Z,38.60
2019-03-01T23:48:15.480Z,38.60
2019-03-01T23:50:41.532Z,38.60
2019-03-01T23:53:07.509Z,38.60
2019-03-01T23:55:33.489Z,38.80
2019-03-01T23:58:06.142Z,38.90
